sensor_id;sensor_type;location;lat;lon;timestamp;P1;durP1;ratioP1;P2;durP2;ratioP2
3155;SDS011;1588;50.892;7.082;2022-09-04T00:01:37;7.33;;;5.37;;
3155;SDS011;1588;50.892;7.082;2022-09-04T00:06:48;10.90;;;5.67;;
3155;SDS011;1588;50.892;7.082;2022-09-04T00:12:00;13.20;;;4.77;;
3155;SDS011;1588;50.892;7.082;2022-09-04T00:17:06;9.17;;;5.20;;
3155;SDS011;1588;50.892;7.082;2022-09-04T00:22:20;7.20;;;5.17;;
3155;SDS011;1588;50.892;7.082;2022-09-04T00:27:31;6.93;;;5.30;;
3155;SDS011;1588;50.892;7.082;2022-09-04T00:32:44;13.30;;;5.70;;
3155;SDS011;1588;50.892;7.082;2022-09-04T00:37:55;8.50;;;5.97;;
3155;SDS011;1588;50.892;7.082;2022-09-04T00:43:06;13.83;;;6.13;;
3155;SDS011;1588;50.892;7.082;2022-09-04T00:48:33;11.50;;;6.10;;
3155;SDS011;1588;50.892;7.082;2022-09-04T00:54:00;11.10;;;5.30;;
3155;SDS011;1588;50.892;7.082;2022-09-04T00:59:17;9.60;;;6.27;;
3155;SDS011;1588;50.892;7.082;2022-09-04T01:04:34;10.30;;;5.63;;
3155;SDS011;1588;50.892;7.082;2022-09-04T01:09:44;8.50;;;5.43;;
3155;SDS011;1588;50.892;7.082;2022-09-04T01:15:11;8.33;;;5.67;;
3155;SDS011;1588;50.892;7.082;2022-09-04T01:20:18;9.80;;;5.30;;
3155;SDS011;1588;50.892;7.082;2022-09-04T01:30:58;13.47;;;7.20;;
3155;SDS011;1588;50.892;7.082;2022-09-04T01:36:06;11.10;;;6.57;;
3155;SDS011;1588;50.892;7.082;2022-09-04T01:41:17;14.10;;;6.50;;
3155;SDS011;1588;50.892;7.082;2022-09-04T01:46:26;7.23;;;5.23;;
3155;SDS011;1588;50.892;7.082;2022-09-04T01:57:43;10.23;;;5.43;;
3155;SDS011;1588;50.892;7.082;2022-09-04T02:02:56;7.93;;;5.50;;
3155;SDS011;1588;50.892;7.082;2022-09-04T02:08:08;7.40;;;5.50;;
3155;SDS011;1588;50.892;7.082;2022-09-04T02:13:22;8.80;;;5.23;;
3155;SDS011;1588;50.892;7.082;2022-09-04T02:18:38;10.33;;;5.60;;
3155;SDS011;1588;50.892;7.082;2022-09-04T02:23:51;13.10;;;5.67;;
3155;SDS011;1588;50.892;7.082;2022-09-04T02:29:06;8.30;;;5.60;;
3155;SDS011;1588;50.892;7.082;2022-09-04T02:34:17;10.73;;;5.93;;
3155;SDS011;1588;50.892;7.082;2022-09-04T02:39:28;19.90;;;6.43;;
3155;SDS011;1588;50.892;7.082;2022-09-04T02:44:43;11.27;;;6.37;;
3155;SDS011;1588;50.892;7.082;2022-09-04T02:49:57;8.00;;;5.90;;
3155;SDS011;1588;50.892;7.082;2022-09-04T02:55:08;7.80;;;5.80;;
3155;SDS011;1588;50.892;7.082;2022-09-04T03:00:19;9.77;;;5.43;;
3155;SDS011;1588;50.892;7.082;2022-09-04T03:05:23;12.90;;;6.60;;
3155;SDS011;1588;50.892;7.082;2022-09-04T03:10:29;9.77;;;5.53;;
3155;SDS011;1588;50.892;7.082;2022-09-04T03:15:37;9.23;;;5.53;;
3155;SDS011;1588;50.892;7.082;2022-09-04T03:20:46;10.20;;;5.80;;
3155;SDS011;1588;50.892;7.082;2022-09-04T03:31:28;7.77;;;5.30;;
3155;SDS011;1588;50.892;7.082;2022-09-04T03:36:35;8.60;;;6.07;;
3155;SDS011;1588;50.892;7.082;2022-09-04T03:41:46;9.40;;;5.93;;
3155;SDS011;1588;50.892;7.082;2022-09-04T03:47:00;14.93;;;5.83;;
3155;SDS011;1588;50.892;7.082;2022-09-04T03:52:11;9.03;;;5.67;;
3155;SDS011;1588;50.892;7.082;2022-09-04T03:57:23;9.73;;;5.23;;
3155;SDS011;1588;50.892;7.082;2022-09-04T04:08:19;10.43;;;6.20;;
3155;SDS011;1588;50.892;7.082;2022-09-04T04:13:58;11.20;;;6.83;;
3155;SDS011;1588;50.892;7.082;2022-09-04T04:24:47;10.73;;;6.40;;
3155;SDS011;1588;50.892;7.082;2022-09-04T04:30:14;7.93;;;5.50;;
3155;SDS011;1588;50.892;7.082;2022-09-04T04:35:20;18.73;;;6.63;;
3155;SDS011;1588;50.892;7.082;2022-09-04T04:40:45;11.97;;;6.80;;
3155;SDS011;1588;50.892;7.082;2022-09-04T04:46:00;22.70;;;7.70;;
3155;SDS011;1588;50.892;7.082;2022-09-04T04:51:12;12.97;;;7.57;;
3155;SDS011;1588;50.892;7.082;2022-09-04T04:56:25;18.10;;;8.23;;
3155;SDS011;1588;50.892;7.082;2022-09-04T05:01:39;13.77;;;8.03;;
3155;SDS011;1588;50.892;7.082;2022-09-04T05:06:50;15.30;;;8.20;;
3155;SDS011;1588;50.892;7.082;2022-09-04T05:12:02;16.17;;;8.10;;
3155;SDS011;1588;50.892;7.082;2022-09-04T05:17:13;14.83;;;8.30;;
3155;SDS011;1588;50.892;7.082;2022-09-04T05:22:23;11.63;;;7.53;;
3155;SDS011;1588;50.892;7.082;2022-09-04T05:27:40;13.77;;;7.97;;
3155;SDS011;1588;50.892;7.082;2022-09-04T05:32:54;16.87;;;9.00;;
3155;SDS011;1588;50.892;7.082;2022-09-04T05:38:03;19.60;;;8.93;;
3155;SDS011;1588;50.892;7.082;2022-09-04T05:43:16;12.77;;;8.00;;
3155;SDS011;1588;50.892;7.082;2022-09-04T05:48:29;13.00;;;8.60;;
3155;SDS011;1588;50.892;7.082;2022-09-04T05:53:47;16.23;;;8.50;;
3155;SDS011;1588;50.892;7.082;2022-09-04T06:04:48;14.77;;;8.63;;
3155;SDS011;1588;50.892;7.082;2022-09-04T06:10:02;17.37;;;8.97;;
3155;SDS011;1588;50.892;7.082;2022-09-04T06:15:21;17.50;;;9.53;;
3155;SDS011;1588;50.892;7.082;2022-09-04T06:20:36;11.50;;;7.27;;
3155;SDS011;1588;50.892;7.082;2022-09-04T06:25:53;10.90;;;7.53;;
3155;SDS011;1588;50.892;7.082;2022-09-04T06:31:09;11.80;;;7.17;;
3155;SDS011;1588;50.892;7.082;2022-09-04T06:36:45;9.70;;;6.30;;
3155;SDS011;1588;50.892;7.082;2022-09-04T06:42:01;9.77;;;6.50;;
3155;SDS011;1588;50.892;7.082;2022-09-04T06:47:16;9.87;;;6.30;;
3155;SDS011;1588;50.892;7.082;2022-09-04T06:52:24;11.17;;;6.83;;
3155;SDS011;1588;50.892;7.082;2022-09-04T06:57:38;11.27;;;7.00;;
3155;SDS011;1588;50.892;7.082;2022-09-04T07:08:41;12.60;;;5.67;;
3155;SDS011;1588;50.892;7.082;2022-09-04T07:19:44;6.43;;;4.77;;
3155;SDS011;1588;50.892;7.082;2022-09-04T07:25:06;7.63;;;4.33;;
3155;SDS011;1588;50.892;7.082;2022-09-04T07:30:13;5.90;;;4.60;;
3155;SDS011;1588;50.892;7.082;2022-09-04T07:35:18;5.60;;;4.33;;
3155;SDS011;1588;50.892;7.082;2022-09-04T07:40:28;7.17;;;4.10;;
3155;SDS011;1588;50.892;7.082;2022-09-04T07:45:36;5.47;;;4.03;;
3155;SDS011;1588;50.892;7.082;2022-09-04T07:50:56;5.13;;;3.67;;
3155;SDS011;1588;50.892;7.082;2022-09-04T07:56:07;5.53;;;3.53;;
3155;SDS011;1588;50.892;7.082;2022-09-04T08:01:20;4.70;;;3.50;;
3155;SDS011;1588;50.892;7.082;2022-09-04T08:06:42;4.30;;;3.03;;
3155;SDS011;1588;50.892;7.082;2022-09-04T08:17:38;3.40;;;2.80;;
3155;SDS011;1588;50.892;7.082;2022-09-04T08:23:12;2.73;;;2.53;;
3155;SDS011;1588;50.892;7.082;2022-09-04T08:28:33;7.67;;;3.47;;
3155;SDS011;1588;50.892;7.082;2022-09-04T08:33:56;6.70;;;3.03;;
3155;SDS011;1588;50.892;7.082;2022-09-04T08:39:09;4.73;;;3.20;;
3155;SDS011;1588;50.892;7.082;2022-09-04T08:50:06;6.90;;;3.27;;
3155;SDS011;1588;50.892;7.082;2022-09-04T08:55:38;5.27;;;3.63;;
3155;SDS011;1588;50.892;7.082;2022-09-04T09:00:55;3.87;;;2.97;;
3155;SDS011;1588;50.892;7.082;2022-09-04T09:12:16;4.57;;;3.80;;
3155;SDS011;1588;50.892;7.082;2022-09-04T09:17:52;6.23;;;3.43;;
3155;SDS011;1588;50.892;7.082;2022-09-04T09:23:19;10.63;;;2.97;;
3155;SDS011;1588;50.892;7.082;2022-09-04T09:28:49;16.00;;;3.37;;
3155;SDS011;1588;50.892;7.082;2022-09-04T09:34:24;3.30;;;3.00;;
3155;SDS011;1588;50.892;7.082;2022-09-04T09:40:13;5.73;;;2.83;;
3155;SDS011;1588;50.892;7.082;2022-09-04T09:45:37;8.93;;;2.67;;
3155;SDS011;1588;50.892;7.082;2022-09-04T10:02:23;2.53;;;2.30;;
3155;SDS011;1588;50.892;7.082;2022-09-04T10:19:03;2.90;;;2.00;;
3155;SDS011;1588;50.892;7.082;2022-09-04T10:24:42;6.73;;;2.60;;
3155;SDS011;1588;50.892;7.082;2022-09-04T10:30:13;6.17;;;2.17;;
3155;SDS011;1588;50.892;7.082;2022-09-04T10:35:22;7.93;;;2.60;;
3155;SDS011;1588;50.892;7.082;2022-09-04T10:40:31;6.23;;;2.50;;
3155;SDS011;1588;50.892;7.082;2022-09-04T10:45:42;9.20;;;2.90;;
3155;SDS011;1588;50.892;7.082;2022-09-04T10:51:07;2.93;;;2.53;;
3155;SDS011;1588;50.892;7.082;2022-09-04T10:56:37;5.33;;;2.57;;
3155;SDS011;1588;50.892;7.082;2022-09-04T11:02:00;3.40;;;2.50;;
3155;SDS011;1588;50.892;7.082;2022-09-04T11:07:24;7.10;;;2.13;;
3155;SDS011;1588;50.892;7.082;2022-09-04T11:12:46;8.37;;;2.87;;
3155;SDS011;1588;50.892;7.082;2022-09-04T11:29:42;3.00;;;2.80;;
3155;SDS011;1588;50.892;7.082;2022-09-04T11:35:11;8.00;;;2.97;;
3155;SDS011;1588;50.892;7.082;2022-09-04T11:40:56;3.23;;;2.90;;
3155;SDS011;1588;50.892;7.082;2022-09-04T11:46:37;4.97;;;2.90;;
3155;SDS011;1588;50.892;7.082;2022-09-04T11:52:15;6.13;;;4.20;;
3155;SDS011;1588;50.892;7.082;2022-09-04T11:57:29;3.90;;;2.80;;
3155;SDS011;1588;50.892;7.082;2022-09-04T12:02:48;2.97;;;2.77;;
3155;SDS011;1588;50.892;7.082;2022-09-04T12:13:56;5.10;;;2.20;;
3155;SDS011;1588;50.892;7.082;2022-09-04T12:30:13;2.23;;;1.87;;
3155;SDS011;1588;50.892;7.082;2022-09-04T12:35:29;2.47;;;1.90;;
3155;SDS011;1588;50.892;7.082;2022-09-04T12:40:53;2.90;;;1.73;;
3155;SDS011;1588;50.892;7.082;2022-09-04T12:46:07;3.00;;;2.07;;
3155;SDS011;1588;50.892;7.082;2022-09-04T12:51:21;3.33;;;1.90;;
3155;SDS011;1588;50.892;7.082;2022-09-04T12:56:28;2.90;;;1.80;;
3155;SDS011;1588;50.892;7.082;2022-09-04T13:01:43;3.23;;;1.70;;
3155;SDS011;1588;50.892;7.082;2022-09-04T13:07:00;2.43;;;1.50;;
3155;SDS011;1588;50.892;7.082;2022-09-04T13:12:17;6.10;;;2.60;;
3155;SDS011;1588;50.892;7.082;2022-09-04T13:17:30;1.97;;;1.87;;
3155;SDS011;1588;50.892;7.082;2022-09-04T13:22:47;3.20;;;1.43;;
3155;SDS011;1588;50.892;7.082;2022-09-04T13:28:08;3.57;;;1.50;;
3155;SDS011;1588;50.892;7.082;2022-09-04T13:33:19;2.07;;;1.73;;
3155;SDS011;1588;50.892;7.082;2022-09-04T13:38:45;2.70;;;2.50;;
3155;SDS011;1588;50.892;7.082;2022-09-04T13:49:41;2.27;;;2.00;;
3155;SDS011;1588;50.892;7.082;2022-09-04T13:54:59;2.87;;;2.30;;
3155;SDS011;1588;50.892;7.082;2022-09-04T14:00:06;2.77;;;2.33;;
3155;SDS011;1588;50.892;7.082;2022-09-04T14:05:12;4.77;;;3.00;;
3155;SDS011;1588;50.892;7.082;2022-09-04T14:10:21;2.57;;;2.37;;
3155;SDS011;1588;50.892;7.082;2022-09-04T14:21:12;3.23;;;2.53;;
3155;SDS011;1588;50.892;7.082;2022-09-04T14:26:22;11.07;;;2.53;;
3155;SDS011;1588;50.892;7.082;2022-09-04T14:31:34;2.00;;;1.90;;
3155;SDS011;1588;50.892;7.082;2022-09-04T14:36:43;2.80;;;1.67;;
3155;SDS011;1588;50.892;7.082;2022-09-04T14:42:10;2.50;;;1.90;;
3155;SDS011;1588;50.892;7.082;2022-09-04T14:47:30;1.97;;;1.87;;
3155;SDS011;1588;50.892;7.082;2022-09-04T14:52:38;3.20;;;1.83;;
3155;SDS011;1588;50.892;7.082;2022-09-04T14:57:45;2.30;;;1.33;;
3155;SDS011;1588;50.892;7.082;2022-09-04T15:02:54;5.40;;;1.70;;
3155;SDS011;1588;50.892;7.082;2022-09-04T15:08:02;4.70;;;1.30;;
3155;SDS011;1588;50.892;7.082;2022-09-04T15:13:20;1.83;;;1.73;;
3155;SDS011;1588;50.892;7.082;2022-09-04T15:18:41;2.03;;;1.60;;
3155;SDS011;1588;50.892;7.082;2022-09-04T15:23:59;3.27;;;1.50;;
3155;SDS011;1588;50.892;7.082;2022-09-04T15:29:06;1.80;;;1.70;;
3155;SDS011;1588;50.892;7.082;2022-09-04T15:34:17;2.20;;;2.00;;
3155;SDS011;1588;50.892;7.082;2022-09-04T15:39:24;3.13;;;2.00;;
3155;SDS011;1588;50.892;7.082;2022-09-04T15:44:31;2.17;;;1.97;;
3155;SDS011;1588;50.892;7.082;2022-09-04T15:49:41;6.30;;;2.40;;
3155;SDS011;1588;50.892;7.082;2022-09-04T15:55:01;6.33;;;2.20;;
3155;SDS011;1588;50.892;7.082;2022-09-04T16:00:13;1.90;;;1.57;;
3155;SDS011;1588;50.892;7.082;2022-09-04T16:05:17;3.03;;;2.20;;
3155;SDS011;1588;50.892;7.082;2022-09-04T16:10:30;1.97;;;1.83;;
3155;SDS011;1588;50.892;7.082;2022-09-04T16:15:47;9.80;;;1.50;;
3155;SDS011;1588;50.892;7.082;2022-09-04T16:20:50;1.67;;;1.50;;
3155;SDS011;1588;50.892;7.082;2022-09-04T16:25:56;1.87;;;1.77;;
3155;SDS011;1588;50.892;7.082;2022-09-04T16:31:02;6.50;;;1.73;;
3155;SDS011;1588;50.892;7.082;2022-09-04T16:36:06;1.90;;;1.77;;
3155;SDS011;1588;50.892;7.082;2022-09-04T16:41:14;1.50;;;1.40;;
3155;SDS011;1588;50.892;7.082;2022-09-04T16:46:26;7.70;;;5.57;;
3155;SDS011;1588;50.892;7.082;2022-09-04T16:51:32;3.67;;;3.27;;
3155;SDS011;1588;50.892;7.082;2022-09-04T16:56:37;2.00;;;1.87;;
3155;SDS011;1588;50.892;7.082;2022-09-04T17:01:45;4.10;;;2.30;;
3155;SDS011;1588;50.892;7.082;2022-09-04T17:06:53;2.23;;;2.00;;
3155;SDS011;1588;50.892;7.082;2022-09-04T17:12:10;1.50;;;1.40;;
3155;SDS011;1588;50.892;7.082;2022-09-04T17:17:20;1.73;;;1.63;;
3155;SDS011;1588;50.892;7.082;2022-09-04T17:22:24;12.13;;;1.73;;
3155;SDS011;1588;50.892;7.082;2022-09-04T17:27:35;3.63;;;1.60;;
3155;SDS011;1588;50.892;7.082;2022-09-04T17:32:45;2.30;;;1.57;;
3155;SDS011;1588;50.892;7.082;2022-09-04T17:37:58;2.73;;;1.97;;
3155;SDS011;1588;50.892;7.082;2022-09-04T17:43:10;3.20;;;1.73;;
3155;SDS011;1588;50.892;7.082;2022-09-04T17:48:28;1.93;;;1.73;;
3155;SDS011;1588;50.892;7.082;2022-09-04T17:53:33;3.00;;;2.17;;
3155;SDS011;1588;50.892;7.082;2022-09-04T17:58:41;3.70;;;1.70;;
3155;SDS011;1588;50.892;7.082;2022-09-04T18:03:56;1.60;;;1.50;;
3155;SDS011;1588;50.892;7.082;2022-09-04T18:09:11;4.20;;;1.63;;
3155;SDS011;1588;50.892;7.082;2022-09-04T18:14:17;1.77;;;1.53;;
3155;SDS011;1588;50.892;7.082;2022-09-04T18:19:27;1.90;;;1.60;;
3155;SDS011;1588;50.892;7.082;2022-09-04T18:24:32;5.43;;;1.87;;
3155;SDS011;1588;50.892;7.082;2022-09-04T18:29:40;1.93;;;1.67;;
3155;SDS011;1588;50.892;7.082;2022-09-04T18:34:54;2.40;;;2.17;;
3155;SDS011;1588;50.892;7.082;2022-09-04T18:40:04;4.00;;;2.00;;
3155;SDS011;1588;50.892;7.082;2022-09-04T18:45:11;1.70;;;1.60;;
3155;SDS011;1588;50.892;7.082;2022-09-04T18:50:28;2.93;;;1.77;;
3155;SDS011;1588;50.892;7.082;2022-09-04T18:55:36;9.90;;;2.57;;
3155;SDS011;1588;50.892;7.082;2022-09-04T19:00:45;2.73;;;2.20;;
3155;SDS011;1588;50.892;7.082;2022-09-04T19:05:55;4.17;;;1.80;;
3155;SDS011;1588;50.892;7.082;2022-09-04T19:11:03;4.07;;;2.03;;
3155;SDS011;1588;50.892;7.082;2022-09-04T19:16:11;2.03;;;1.90;;
3155;SDS011;1588;50.892;7.082;2022-09-04T19:21:21;3.60;;;2.30;;
3155;SDS011;1588;50.892;7.082;2022-09-04T19:26:31;4.80;;;2.30;;
3155;SDS011;1588;50.892;7.082;2022-09-04T19:31:41;5.37;;;2.60;;
3155;SDS011;1588;50.892;7.082;2022-09-04T19:36:53;12.53;;;2.57;;
3155;SDS011;1588;50.892;7.082;2022-09-04T19:42:14;3.90;;;2.90;;
3155;SDS011;1588;50.892;7.082;2022-09-04T19:47:32;3.93;;;2.60;;
3155;SDS011;1588;50.892;7.082;2022-09-04T19:52:49;4.57;;;2.60;;
3155;SDS011;1588;50.892;7.082;2022-09-04T19:57:58;2.97;;;2.57;;
3155;SDS011;1588;50.892;7.082;2022-09-04T20:03:07;3.43;;;2.47;;
3155;SDS011;1588;50.892;7.082;2022-09-04T20:08:25;3.30;;;2.37;;
3155;SDS011;1588;50.892;7.082;2022-09-04T20:13:32;3.30;;;2.30;;
3155;SDS011;1588;50.892;7.082;2022-09-04T20:18:41;11.13;;;3.70;;
3155;SDS011;1588;50.892;7.082;2022-09-04T20:23:54;8.10;;;3.87;;
3155;SDS011;1588;50.892;7.082;2022-09-04T20:29:21;5.20;;;2.63;;
3155;SDS011;1588;50.892;7.082;2022-09-04T20:34:35;3.13;;;2.70;;
3155;SDS011;1588;50.892;7.082;2022-09-04T20:39:46;3.90;;;2.80;;
3155;SDS011;1588;50.892;7.082;2022-09-04T20:45:01;2.93;;;2.47;;
3155;SDS011;1588;50.892;7.082;2022-09-04T20:50:16;4.23;;;2.70;;
3155;SDS011;1588;50.892;7.082;2022-09-04T20:55:32;3.07;;;2.67;;
3155;SDS011;1588;50.892;7.082;2022-09-04T21:00:45;3.60;;;2.80;;
3155;SDS011;1588;50.892;7.082;2022-09-04T21:05:54;3.07;;;2.70;;
3155;SDS011;1588;50.892;7.082;2022-09-04T21:11:07;4.07;;;2.90;;
3155;SDS011;1588;50.892;7.082;2022-09-04T21:16:18;4.87;;;2.80;;
3155;SDS011;1588;50.892;7.082;2022-09-04T21:21:33;6.20;;;2.90;;
3155;SDS011;1588;50.892;7.082;2022-09-04T21:27:00;6.20;;;2.53;;
3155;SDS011;1588;50.892;7.082;2022-09-04T21:32:43;9.10;;;3.10;;
3155;SDS011;1588;50.892;7.082;2022-09-04T21:37:54;3.30;;;2.60;;
3155;SDS011;1588;50.892;7.082;2022-09-04T21:43:12;3.70;;;2.97;;
3155;SDS011;1588;50.892;7.082;2022-09-04T21:48:30;4.40;;;3.10;;
3155;SDS011;1588;50.892;7.082;2022-09-04T21:54:01;7.47;;;2.80;;
3155;SDS011;1588;50.892;7.082;2022-09-04T21:59:42;2.93;;;2.50;;
3155;SDS011;1588;50.892;7.082;2022-09-04T22:05:01;4.10;;;3.13;;
3155;SDS011;1588;50.892;7.082;2022-09-04T22:10:25;2.40;;;2.20;;
3155;SDS011;1588;50.892;7.082;2022-09-04T22:15:42;4.00;;;2.83;;
3155;SDS011;1588;50.892;7.082;2022-09-04T22:20:58;4.37;;;2.70;;
3155;SDS011;1588;50.892;7.082;2022-09-04T22:26:31;6.23;;;3.20;;
3155;SDS011;1588;50.892;7.082;2022-09-04T22:37:34;2.77;;;2.50;;
3155;SDS011;1588;50.892;7.082;2022-09-04T22:43:11;3.77;;;2.97;;
3155;SDS011;1588;50.892;7.082;2022-09-04T22:48:24;5.00;;;2.97;;
3155;SDS011;1588;50.892;7.082;2022-09-04T22:53:56;4.27;;;2.40;;
3155;SDS011;1588;50.892;7.082;2022-09-04T22:59:17;2.90;;;2.60;;
3155;SDS011;1588;50.892;7.082;2022-09-04T23:04:48;3.17;;;2.60;;
3155;SDS011;1588;50.892;7.082;2022-09-04T23:10:27;4.07;;;2.97;;
3155;SDS011;1588;50.892;7.082;2022-09-04T23:15:53;3.13;;;2.53;;
3155;SDS011;1588;50.892;7.082;2022-09-04T23:21:15;14.03;;;2.80;;
3155;SDS011;1588;50.892;7.082;2022-09-04T23:26:43;4.37;;;3.07;;
3155;SDS011;1588;50.892;7.082;2022-09-04T23:32:06;2.87;;;2.60;;
3155;SDS011;1588;50.892;7.082;2022-09-04T23:37:29;4.37;;;3.03;;
3155;SDS011;1588;50.892;7.082;2022-09-04T23:42:45;9.70;;;3.03;;
3155;SDS011;1588;50.892;7.082;2022-09-04T23:54:06;6.33;;;3.00;;
3155;SDS011;1588;50.892;7.082;2022-09-04T23:59:31;4.60;;;3.27;;
